sensor_id;sensor_type;location;lat;lon;timestamp;P1;durP1;ratioP1;P2;durP2;ratioP2
64313;SDS011;50650;48.180;11.524;2024-01-06T00:02:20;8.60;;;6.50;;
64313;SDS011;50650;48.180;11.524;2024-01-06T00:04:50;9.85;;;7.05;;
64313;SDS011;50650;48.180;11.524;2024-01-06T00:07:17;9.93;;;6.70;;
64313;SDS011;50650;48.180;11.524;2024-01-06T00:09:43;11.18;;;7.63;;
64313;SDS011;50650;48.180;11.524;2024-01-06T00:12:11;9.90;;;7.55;;
64313;SDS011;50650;48.180;11.524;2024-01-06T00:14:39;9.85;;;7.20;;
64313;SDS011;50650;48.180;11.524;2024-01-06T00:17:08;9.27;;;6.95;;
64313;SDS011;50650;48.180;11.524;2024-01-06T00:19:35;11.25;;;6.88;;
64313;SDS011;50650;48.180;11.524;2024-01-06T00:22:05;10.10;;;6.82;;
64313;SDS011;50650;48.180;11.524;2024-01-06T00:24:31;11.60;;;7.15;;
64313;SDS011;50650;48.180;11.524;2024-01-06T00:26:58;8.05;;;6.75;;
64313;SDS011;50650;48.180;11.524;2024-01-06T00:29:24;9.60;;;6.95;;
64313;SDS011;50650;48.180;11.524;2024-01-06T00:31:50;9.48;;;7.65;;
64313;SDS011;50650;48.180;11.524;2024-01-06T00:34:20;10.02;;;7.22;;
64313;SDS011;50650;48.180;11.524;2024-01-06T00:36:46;9.02;;;7.28;;
64313;SDS011;50650;48.180;11.524;2024-01-06T00:39:14;10.73;;;7.75;;
64313;SDS011;50650;48.180;11.524;2024-01-06T00:41:40;10.07;;;7.32;;
64313;SDS011;50650;48.180;11.524;2024-01-06T00:44:07;9.98;;;7.45;;
64313;SDS011;50650;48.180;11.524;2024-01-06T00:46:33;9.32;;;7.43;;
64313;SDS011;50650;48.180;11.524;2024-01-06T00:48:59;13.10;;;8.73;;
64313;SDS011;50650;48.180;11.524;2024-01-06T00:51:26;11.13;;;7.72;;
64313;SDS011;50650;48.180;11.524;2024-01-06T00:53:53;11.65;;;8.18;;
64313;SDS011;50650;48.180;11.524;2024-01-06T00:56:23;10.43;;;7.63;;
64313;SDS011;50650;48.180;11.524;2024-01-06T00:58:52;10.50;;;7.47;;
64313;SDS011;50650;48.180;11.524;2024-01-06T01:01:18;11.15;;;7.63;;
64313;SDS011;50650;48.180;11.524;2024-01-06T01:03:44;11.82;;;7.40;;
64313;SDS011;50650;48.180;11.524;2024-01-06T01:06:11;12.93;;;8.43;;
64313;SDS011;50650;48.180;11.524;2024-01-06T01:08:40;10.38;;;8.00;;
64313;SDS011;50650;48.180;11.524;2024-01-06T01:11:06;8.50;;;6.25;;
64313;SDS011;50650;48.180;11.524;2024-01-06T01:13:34;8.68;;;7.05;;
64313;SDS011;50650;48.180;11.524;2024-01-06T01:16:00;9.05;;;6.70;;
64313;SDS011;50650;48.180;11.524;2024-01-06T01:18:28;8.93;;;6.78;;
64313;SDS011;50650;48.180;11.524;2024-01-06T01:20:54;9.52;;;6.28;;
64313;SDS011;50650;48.180;11.524;2024-01-06T01:23:20;7.35;;;5.70;;
64313;SDS011;50650;48.180;11.524;2024-01-06T01:25:53;8.95;;;6.78;;
64313;SDS011;50650;48.180;11.524;2024-01-06T01:28:20;7.18;;;5.45;;
64313;SDS011;50650;48.180;11.524;2024-01-06T01:30:48;8.48;;;6.55;;
64313;SDS011;50650;48.180;11.524;2024-01-06T01:33:14;9.80;;;6.82;;
64313;SDS011;50650;48.180;11.524;2024-01-06T01:35:41;8.13;;;6.03;;
64313;SDS011;50650;48.180;11.524;2024-01-06T01:38:07;9.50;;;6.00;;
64313;SDS011;50650;48.180;11.524;2024-01-06T01:40:33;8.30;;;6.18;;
64313;SDS011;50650;48.180;11.524;2024-01-06T01:43:00;7.78;;;5.55;;
64313;SDS011;50650;48.180;11.524;2024-01-06T01:45:26;8.75;;;6.00;;
64313;SDS011;50650;48.180;11.524;2024-01-06T01:47:54;7.18;;;5.75;;
64313;SDS011;50650;48.180;11.524;2024-01-06T01:50:21;6.95;;;5.13;;
64313;SDS011;50650;48.180;11.524;2024-01-06T01:52:47;6.78;;;5.35;;
64313;SDS011;50650;48.180;11.524;2024-01-06T01:55:14;7.57;;;5.80;;
64313;SDS011;50650;48.180;11.524;2024-01-06T01:57:40;7.28;;;5.75;;
64313;SDS011;50650;48.180;11.524;2024-01-06T02:00:07;8.63;;;6.03;;
64313;SDS011;50650;48.180;11.524;2024-01-06T02:02:38;7.80;;;5.95;;
64313;SDS011;50650;48.180;11.524;2024-01-06T02:05:06;7.93;;;5.78;;
64313;SDS011;50650;48.180;11.524;2024-01-06T02:07:32;8.40;;;6.22;;
64313;SDS011;50650;48.180;11.524;2024-01-06T02:09:59;9.68;;;6.57;;
64313;SDS011;50650;48.180;11.524;2024-01-06T02:12:25;10.90;;;6.72;;
64313;SDS011;50650;48.180;11.524;2024-01-06T02:14:51;9.98;;;6.68;;
64313;SDS011;50650;48.180;11.524;2024-01-06T02:17:18;9.93;;;6.53;;
64313;SDS011;50650;48.180;11.524;2024-01-06T02:19:44;7.35;;;5.80;;
64313;SDS011;50650;48.180;11.524;2024-01-06T02:22:15;7.03;;;5.60;;
64313;SDS011;50650;48.180;11.524;2024-01-06T02:24:41;8.18;;;6.13;;
64313;SDS011;50650;48.180;11.524;2024-01-06T02:27:08;7.97;;;6.47;;
64313;SDS011;50650;48.180;11.524;2024-01-06T02:29:34;8.13;;;6.20;;
64313;SDS011;50650;48.180;11.524;2024-01-06T02:32:00;9.27;;;6.18;;
64313;SDS011;50650;48.180;11.524;2024-01-06T02:34:27;7.53;;;6.10;;
64313;SDS011;50650;48.180;11.524;2024-01-06T02:36:53;8.75;;;6.75;;
64313;SDS011;50650;48.180;11.524;2024-01-06T02:39:24;7.60;;;6.13;;
64313;SDS011;50650;48.180;11.524;2024-01-06T02:41:50;8.43;;;6.35;;
64313;SDS011;50650;48.180;11.524;2024-01-06T02:44:17;9.00;;;6.28;;
64313;SDS011;50650;48.180;11.524;2024-01-06T02:46:46;10.07;;;6.55;;
64313;SDS011;50650;48.180;11.524;2024-01-06T02:49:12;9.55;;;6.68;;
64313;SDS011;50650;48.180;11.524;2024-01-06T02:51:39;9.68;;;7.07;;
64313;SDS011;50650;48.180;11.524;2024-01-06T02:54:08;9.32;;;7.25;;
64313;SDS011;50650;48.180;11.524;2024-01-06T02:56:36;9.10;;;6.80;;
64313;SDS011;50650;48.180;11.524;2024-01-06T02:59:03;8.60;;;6.53;;
64313;SDS011;50650;48.180;11.524;2024-01-06T03:01:31;7.55;;;6.07;;
64313;SDS011;50650;48.180;11.524;2024-01-06T03:03:58;7.50;;;5.13;;
64313;SDS011;50650;48.180;11.524;2024-01-06T03:06:26;5.05;;;4.30;;
64313;SDS011;50650;48.180;11.524;2024-01-06T03:08:53;5.25;;;4.25;;
64313;SDS011;50650;48.180;11.524;2024-01-06T03:11:19;5.05;;;3.80;;
64313;SDS011;50650;48.180;11.524;2024-01-06T03:13:47;6.20;;;3.95;;
64313;SDS011;50650;48.180;11.524;2024-01-06T03:16:13;5.50;;;3.67;;
64313;SDS011;50650;48.180;11.524;2024-01-06T03:18:40;4.95;;;2.95;;
64313;SDS011;50650;48.180;11.524;2024-01-06T03:21:16;4.57;;;3.22;;
64313;SDS011;50650;48.180;11.524;2024-01-06T03:26:09;4.80;;;3.20;;
64313;SDS011;50650;48.180;11.524;2024-01-06T03:28:35;4.45;;;3.42;;
64313;SDS011;50650;48.180;11.524;2024-01-06T03:31:03;5.05;;;3.50;;
64313;SDS011;50650;48.180;11.524;2024-01-06T03:33:29;4.78;;;3.88;;
64313;SDS011;50650;48.180;11.524;2024-01-06T03:36:04;6.57;;;3.60;;
64313;SDS011;50650;48.180;11.524;2024-01-06T03:38:31;4.15;;;3.40;;
64313;SDS011;50650;48.180;11.524;2024-01-06T03:40:58;5.05;;;3.60;;
64313;SDS011;50650;48.180;11.524;2024-01-06T03:43:27;5.05;;;3.33;;
64313;SDS011;50650;48.180;11.524;2024-01-06T03:45:53;3.97;;;2.85;;
64313;SDS011;50650;48.180;11.524;2024-01-06T03:48:21;3.65;;;3.05;;
64313;SDS011;50650;48.180;11.524;2024-01-06T03:50:48;4.18;;;2.72;;
64313;SDS011;50650;48.180;11.524;2024-01-06T03:53:17;4.18;;;2.60;;
64313;SDS011;50650;48.180;11.524;2024-01-06T03:55:46;4.22;;;2.70;;
64313;SDS011;50650;48.180;11.524;2024-01-06T03:58:12;3.38;;;2.50;;
64313;SDS011;50650;48.180;11.524;2024-01-06T04:00:44;2.60;;;2.00;;
64313;SDS011;50650;48.180;11.524;2024-01-06T04:03:11;2.60;;;1.90;;
64313;SDS011;50650;48.180;11.524;2024-01-06T04:05:42;2.70;;;1.90;;
64313;SDS011;50650;48.180;11.524;2024-01-06T04:08:09;3.00;;;1.80;;
64313;SDS011;50650;48.180;11.524;2024-01-06T04:10:41;2.75;;;1.63;;
64313;SDS011;50650;48.180;11.524;2024-01-06T04:13:14;1.75;;;1.48;;
64313;SDS011;50650;48.180;11.524;2024-01-06T04:15:44;1.67;;;1.20;;
64313;SDS011;50650;48.180;11.524;2024-01-06T04:18:10;1.90;;;0.90;;
64313;SDS011;50650;48.180;11.524;2024-01-06T04:20:37;1.38;;;0.65;;
64313;SDS011;50650;48.180;11.524;2024-01-06T04:23:07;0.90;;;0.60;;
64313;SDS011;50650;48.180;11.524;2024-01-06T04:25:36;1.38;;;0.50;;
64313;SDS011;50650;48.180;11.524;2024-01-06T04:28:06;2.47;;;0.60;;
64313;SDS011;50650;48.180;11.524;2024-01-06T04:30:32;1.65;;;0.40;;
64313;SDS011;50650;48.180;11.524;2024-01-06T04:32:58;0.80;;;0.40;;
64313;SDS011;50650;48.180;11.524;2024-01-06T04:35:25;0.85;;;0.45;;
64313;SDS011;50650;48.180;11.524;2024-01-06T04:37:52;0.25;;;0.20;;
64313;SDS011;50650;48.180;11.524;2024-01-06T04:40:23;0.30;;;0.30;;
64313;SDS011;50650;48.180;11.524;2024-01-06T04:42:52;0.30;;;0.20;;
64313;SDS011;50650;48.180;11.524;2024-01-06T04:45:18;0.25;;;0.20;;
64313;SDS011;50650;48.180;11.524;2024-01-06T04:47:45;0.30;;;0.17;;
64313;SDS011;50650;48.180;11.524;2024-01-06T04:50:14;0.60;;;0.30;;
64313;SDS011;50650;48.180;11.524;2024-01-06T04:52:41;0.45;;;0.28;;
64313;SDS011;50650;48.180;11.524;2024-01-06T04:55:07;0.50;;;0.30;;
64313;SDS011;50650;48.180;11.524;2024-01-06T04:57:38;1.13;;;0.50;;
64313;SDS011;50650;48.180;11.524;2024-01-06T05:00:04;0.70;;;0.40;;
64313;SDS011;50650;48.180;11.524;2024-01-06T05:02:32;1.15;;;0.47;;
64313;SDS011;50650;48.180;11.524;2024-01-06T05:05:00;0.70;;;0.50;;
64313;SDS011;50650;48.180;11.524;2024-01-06T05:07:29;0.57;;;0.38;;
64313;SDS011;50650;48.180;11.524;2024-01-06T05:09:56;0.60;;;0.40;;
64313;SDS011;50650;48.180;11.524;2024-01-06T05:12:22;0.45;;;0.40;;
64313;SDS011;50650;48.180;11.524;2024-01-06T05:14:53;1.27;;;0.60;;
64313;SDS011;50650;48.180;11.524;2024-01-06T05:17:19;0.60;;;0.40;;
64313;SDS011;50650;48.180;11.524;2024-01-06T05:19:48;1.17;;;0.50;;
64313;SDS011;50650;48.180;11.524;2024-01-06T05:22:15;0.90;;;0.50;;
64313;SDS011;50650;48.180;11.524;2024-01-06T05:24:41;1.00;;;0.40;;
64313;SDS011;50650;48.180;11.524;2024-01-06T05:27:09;0.65;;;0.45;;
64313;SDS011;50650;48.180;11.524;2024-01-06T05:29:39;0.95;;;0.40;;
64313;SDS011;50650;48.180;11.524;2024-01-06T05:32:06;0.30;;;0.20;;
64313;SDS011;50650;48.180;11.524;2024-01-06T05:34:36;0.82;;;0.30;;
64313;SDS011;50650;48.180;11.524;2024-01-06T05:37:03;0.43;;;0.30;;
64313;SDS011;50650;48.180;11.524;2024-01-06T05:39:32;0.30;;;0.22;;
64313;SDS011;50650;48.180;11.524;2024-01-06T05:41:59;1.63;;;0.50;;
64313;SDS011;50650;48.180;11.524;2024-01-06T05:44:25;1.05;;;0.47;;
64313;SDS011;50650;48.180;11.524;2024-01-06T05:46:51;1.20;;;0.63;;
64313;SDS011;50650;48.180;11.524;2024-01-06T05:49:22;0.82;;;0.60;;
64313;SDS011;50650;48.180;11.524;2024-01-06T05:51:51;1.73;;;0.70;;
64313;SDS011;50650;48.180;11.524;2024-01-06T05:54:19;1.60;;;0.70;;
64313;SDS011;50650;48.180;11.524;2024-01-06T05:56:46;1.75;;;0.90;;
64313;SDS011;50650;48.180;11.524;2024-01-06T05:59:13;2.78;;;0.98;;
64313;SDS011;50650;48.180;11.524;2024-01-06T06:01:39;2.45;;;0.80;;
64313;SDS011;50650;48.180;11.524;2024-01-06T06:04:06;1.30;;;0.90;;
64313;SDS011;50650;48.180;11.524;2024-01-06T06:06:36;2.05;;;1.00;;
64313;SDS011;50650;48.180;11.524;2024-01-06T06:09:05;2.63;;;1.17;;
64313;SDS011;50650;48.180;11.524;2024-01-06T06:11:32;3.67;;;0.93;;
64313;SDS011;50650;48.180;11.524;2024-01-06T06:14:01;3.10;;;1.20;;
64313;SDS011;50650;48.180;11.524;2024-01-06T06:16:28;2.17;;;1.10;;
64313;SDS011;50650;48.180;11.524;2024-01-06T06:18:54;3.83;;;1.20;;
64313;SDS011;50650;48.180;11.524;2024-01-06T06:21:21;7.00;;;1.33;;
64313;SDS011;50650;48.180;11.524;2024-01-06T06:23:51;3.55;;;1.30;;
64313;SDS011;50650;48.180;11.524;2024-01-06T06:26:18;1.70;;;0.98;;
64313;SDS011;50650;48.180;11.524;2024-01-06T06:28:47;5.40;;;1.20;;
64313;SDS011;50650;48.180;11.524;2024-01-06T06:31:23;2.92;;;1.10;;
64313;SDS011;50650;48.180;11.524;2024-01-06T06:33:52;3.47;;;1.00;;
64313;SDS011;50650;48.180;11.524;2024-01-06T06:36:21;2.78;;;1.15;;
64313;SDS011;50650;48.180;11.524;2024-01-06T06:38:48;3.78;;;1.10;;
64313;SDS011;50650;48.180;11.524;2024-01-06T06:41:16;2.58;;;1.05;;
64313;SDS011;50650;48.180;11.524;2024-01-06T06:43:42;2.85;;;1.05;;
64313;SDS011;50650;48.180;11.524;2024-01-06T06:46:11;1.65;;;0.98;;
64313;SDS011;50650;48.180;11.524;2024-01-06T06:48:38;2.60;;;0.90;;
64313;SDS011;50650;48.180;11.524;2024-01-06T06:51:05;1.58;;;0.88;;
64313;SDS011;50650;48.180;11.524;2024-01-06T06:53:31;5.20;;;1.00;;
64313;SDS011;50650;48.180;11.524;2024-01-06T06:55:58;2.50;;;1.10;;
64313;SDS011;50650;48.180;11.524;2024-01-06T06:58:25;2.25;;;0.85;;
64313;SDS011;50650;48.180;11.524;2024-01-06T07:00:52;0.93;;;0.70;;
64313;SDS011;50650;48.180;11.524;2024-01-06T07:03:19;3.78;;;1.00;;
64313;SDS011;50650;48.180;11.524;2024-01-06T07:05:45;1.55;;;0.93;;
64313;SDS011;50650;48.180;11.524;2024-01-06T07:08:12;3.25;;;1.27;;
64313;SDS011;50650;48.180;11.524;2024-01-06T07:10:40;1.98;;;1.10;;
64313;SDS011;50650;48.180;11.524;2024-01-06T07:13:14;2.58;;;0.80;;
64313;SDS011;50650;48.180;11.524;2024-01-06T07:15:47;4.90;;;1.30;;
64313;SDS011;50650;48.180;11.524;2024-01-06T07:18:14;3.17;;;1.30;;
64313;SDS011;50650;48.180;11.524;2024-01-06T07:20:43;2.10;;;1.00;;
64313;SDS011;50650;48.180;11.524;2024-01-06T07:23:09;1.98;;;1.05;;
64313;SDS011;50650;48.180;11.524;2024-01-06T07:25:38;2.90;;;1.50;;
64313;SDS011;50650;48.180;11.524;2024-01-06T07:28:11;2.55;;;1.10;;
64313;SDS011;50650;48.180;11.524;2024-01-06T07:30:37;4.20;;;1.00;;
64313;SDS011;50650;48.180;11.524;2024-01-06T07:33:05;3.75;;;1.17;;
64313;SDS011;50650;48.180;11.524;2024-01-06T07:35:31;5.82;;;1.45;;
64313;SDS011;50650;48.180;11.524;2024-01-06T07:37:58;3.28;;;1.23;;
64313;SDS011;50650;48.180;11.524;2024-01-06T07:40:24;4.00;;;1.25;;
64313;SDS011;50650;48.180;11.524;2024-01-06T07:42:51;3.13;;;0.98;;
64313;SDS011;50650;48.180;11.524;2024-01-06T07:45:17;2.92;;;1.40;;
64313;SDS011;50650;48.180;11.524;2024-01-06T07:47:43;3.65;;;1.45;;
64313;SDS011;50650;48.180;11.524;2024-01-06T07:50:11;1.88;;;1.27;;
64313;SDS011;50650;48.180;11.524;2024-01-06T07:52:38;3.63;;;1.42;;
64313;SDS011;50650;48.180;11.524;2024-01-06T07:55:04;4.70;;;1.60;;
64313;SDS011;50650;48.180;11.524;2024-01-06T07:57:34;3.22;;;1.52;;
64313;SDS011;50650;48.180;11.524;2024-01-06T08:00:00;2.72;;;1.52;;
64313;SDS011;50650;48.180;11.524;2024-01-06T08:02:27;8.75;;;1.98;;
64313;SDS011;50650;48.180;11.524;2024-01-06T08:04:53;5.05;;;1.70;;
64313;SDS011;50650;48.180;11.524;2024-01-06T08:07:22;4.88;;;1.70;;
64313;SDS011;50650;48.180;11.524;2024-01-06T08:09:48;2.40;;;1.30;;
64313;SDS011;50650;48.180;11.524;2024-01-06T08:12:15;4.82;;;1.30;;
64313;SDS011;50650;48.180;11.524;2024-01-06T08:14:41;4.57;;;1.50;;
64313;SDS011;50650;48.180;11.524;2024-01-06T08:17:07;4.50;;;1.13;;
64313;SDS011;50650;48.180;11.524;2024-01-06T08:19:34;2.45;;;1.10;;
64313;SDS011;50650;48.180;11.524;2024-01-06T08:22:00;4.93;;;1.50;;
64313;SDS011;50650;48.180;11.524;2024-01-06T08:24:28;2.83;;;0.90;;
64313;SDS011;50650;48.180;11.524;2024-01-06T08:26:58;2.58;;;0.98;;
64313;SDS011;50650;48.180;11.524;2024-01-06T08:29:24;2.63;;;0.93;;
64313;SDS011;50650;48.180;11.524;2024-01-06T08:31:50;3.95;;;0.93;;
64313;SDS011;50650;48.180;11.524;2024-01-06T08:34:22;3.83;;;0.90;;
64313;SDS011;50650;48.180;11.524;2024-01-06T08:36:48;2.80;;;1.20;;
64313;SDS011;50650;48.180;11.524;2024-01-06T08:39:15;3.72;;;0.80;;
64313;SDS011;50650;48.180;11.524;2024-01-06T08:41:43;4.43;;;0.98;;
64313;SDS011;50650;48.180;11.524;2024-01-06T08:44:11;4.03;;;1.00;;
64313;SDS011;50650;48.180;11.524;2024-01-06T08:46:37;5.25;;;1.00;;
64313;SDS011;50650;48.180;11.524;2024-01-06T08:49:04;4.93;;;1.13;;
64313;SDS011;50650;48.180;11.524;2024-01-06T08:51:31;3.85;;;1.27;;
64313;SDS011;50650;48.180;11.524;2024-01-06T08:54:02;3.08;;;1.20;;
64313;SDS011;50650;48.180;11.524;2024-01-06T08:56:30;3.00;;;0.90;;
64313;SDS011;50650;48.180;11.524;2024-01-06T08:58:58;2.45;;;1.00;;
64313;SDS011;50650;48.180;11.524;2024-01-06T09:01:30;5.75;;;1.15;;
64313;SDS011;50650;48.180;11.524;2024-01-06T09:03:57;3.63;;;1.23;;
64313;SDS011;50650;48.180;11.524;2024-01-06T09:06:26;4.20;;;1.10;;
64313;SDS011;50650;48.180;11.524;2024-01-06T09:08:53;2.47;;;1.10;;
64313;SDS011;50650;48.180;11.524;2024-01-06T09:11:19;2.85;;;1.05;;
64313;SDS011;50650;48.180;11.524;2024-01-06T09:13:45;4.15;;;1.50;;
64313;SDS011;50650;48.180;11.524;2024-01-06T09:16:13;3.97;;;1.25;;
64313;SDS011;50650;48.180;11.524;2024-01-06T09:18:39;4.75;;;2.08;;
64313;SDS011;50650;48.180;11.524;2024-01-06T09:21:06;6.45;;;1.60;;
64313;SDS011;50650;48.180;11.524;2024-01-06T09:23:33;4.68;;;1.88;;
64313;SDS011;50650;48.180;11.524;2024-01-06T09:25:59;3.05;;;1.35;;
64313;SDS011;50650;48.180;11.524;2024-01-06T09:28:25;6.47;;;1.50;;
64313;SDS011;50650;48.180;11.524;2024-01-06T09:30:52;3.58;;;1.40;;
64313;SDS011;50650;48.180;11.524;2024-01-06T09:33:22;3.50;;;1.50;;
64313;SDS011;50650;48.180;11.524;2024-01-06T09:35:48;5.28;;;1.55;;
64313;SDS011;50650;48.180;11.524;2024-01-06T09:38:15;3.38;;;1.45;;
64313;SDS011;50650;48.180;11.524;2024-01-06T09:40:45;2.70;;;1.33;;
64313;SDS011;50650;48.180;11.524;2024-01-06T09:43:11;6.03;;;1.70;;
64313;SDS011;50650;48.180;11.524;2024-01-06T09:45:38;3.55;;;1.35;;
64313;SDS011;50650;48.180;11.524;2024-01-06T09:48:06;5.32;;;1.70;;
64313;SDS011;50650;48.180;11.524;2024-01-06T09:50:37;4.95;;;1.55;;
64313;SDS011;50650;48.180;11.524;2024-01-06T09:53:08;4.43;;;1.58;;
64313;SDS011;50650;48.180;11.524;2024-01-06T09:55:36;3.67;;;1.17;;
64313;SDS011;50650;48.180;11.524;2024-01-06T09:58:03;4.82;;;1.25;;
64313;SDS011;50650;48.180;11.524;2024-01-06T10:00:30;4.13;;;1.33;;
64313;SDS011;50650;48.180;11.524;2024-01-06T10:03:00;1.60;;;1.20;;
64313;SDS011;50650;48.180;11.524;2024-01-06T10:05:34;5.05;;;1.10;;
64313;SDS011;50650;48.180;11.524;2024-01-06T10:08:02;2.03;;;1.30;;
64313;SDS011;50650;48.180;11.524;2024-01-06T10:10:32;4.03;;;1.73;;
64313;SDS011;50650;48.180;11.524;2024-01-06T10:12:59;2.35;;;1.67;;
64313;SDS011;50650;48.180;11.524;2024-01-06T10:15:28;4.25;;;2.20;;
64313;SDS011;50650;48.180;11.524;2024-01-06T10:18:02;5.68;;;2.25;;
64313;SDS011;50650;48.180;11.524;2024-01-06T10:20:29;7.47;;;2.58;;
64313;SDS011;50650;48.180;11.524;2024-01-06T10:22:55;4.05;;;2.30;;
64313;SDS011;50650;48.180;11.524;2024-01-06T10:25:31;5.55;;;2.25;;
64313;SDS011;50650;48.180;11.524;2024-01-06T10:28:01;6.45;;;2.60;;
64313;SDS011;50650;48.180;11.524;2024-01-06T10:30:28;6.28;;;2.53;;
64313;SDS011;50650;48.180;11.524;2024-01-06T10:32:54;4.93;;;2.00;;
64313;SDS011;50650;48.180;11.524;2024-01-06T10:35:21;5.32;;;1.98;;
64313;SDS011;50650;48.180;11.524;2024-01-06T10:37:47;3.53;;;1.80;;
64313;SDS011;50650;48.180;11.524;2024-01-06T10:40:15;4.85;;;1.80;;
64313;SDS011;50650;48.180;11.524;2024-01-06T10:42:45;4.28;;;1.33;;
64313;SDS011;50650;48.180;11.524;2024-01-06T10:45:12;3.83;;;1.85;;
64313;SDS011;50650;48.180;11.524;2024-01-06T10:47:40;5.18;;;1.65;;
64313;SDS011;50650;48.180;11.524;2024-01-06T10:50:07;7.57;;;2.33;;
64313;SDS011;50650;48.180;11.524;2024-01-06T10:52:41;5.15;;;2.10;;
64313;SDS011;50650;48.180;11.524;2024-01-06T10:55:09;4.43;;;1.58;;
64313;SDS011;50650;48.180;11.524;2024-01-06T10:57:38;4.57;;;1.77;;
64313;SDS011;50650;48.180;11.524;2024-01-06T11:00:06;5.18;;;2.05;;
64313;SDS011;50650;48.180;11.524;2024-01-06T11:02:34;8.35;;;2.15;;
64313;SDS011;50650;48.180;11.524;2024-01-06T11:05:01;4.43;;;2.22;;
64313;SDS011;50650;48.180;11.524;2024-01-06T11:07:28;3.90;;;1.80;;
64313;SDS011;50650;48.180;11.524;2024-01-06T11:09:56;6.40;;;2.22;;
64313;SDS011;50650;48.180;11.524;2024-01-06T11:12:24;6.85;;;1.77;;
64313;SDS011;50650;48.180;11.524;2024-01-06T11:14:55;3.90;;;2.42;;
64313;SDS011;50650;48.180;11.524;2024-01-06T11:20:15;3.53;;;1.90;;
64313;SDS011;50650;48.180;11.524;2024-01-06T11:22:41;4.70;;;2.15;;
64313;SDS011;50650;48.180;11.524;2024-01-06T11:25:08;5.45;;;1.92;;
64313;SDS011;50650;48.180;11.524;2024-01-06T11:27:46;6.05;;;2.90;;
64313;SDS011;50650;48.180;11.524;2024-01-06T11:30:21;6.30;;;2.80;;
64313;SDS011;50650;48.180;11.524;2024-01-06T11:32:50;5.78;;;2.90;;
64313;SDS011;50650;48.180;11.524;2024-01-06T11:35:18;4.82;;;2.85;;
64313;SDS011;50650;48.180;11.524;2024-01-06T11:37:51;7.15;;;2.58;;
64313;SDS011;50650;48.180;11.524;2024-01-06T11:40:24;6.47;;;2.70;;
64313;SDS011;50650;48.180;11.524;2024-01-06T11:42:58;6.47;;;2.72;;
64313;SDS011;50650;48.180;11.524;2024-01-06T11:45:30;5.43;;;2.78;;
64313;SDS011;50650;48.180;11.524;2024-01-06T11:47:58;5.03;;;2.55;;
64313;SDS011;50650;48.180;11.524;2024-01-06T11:50:25;5.65;;;2.60;;
64313;SDS011;50650;48.180;11.524;2024-01-06T11:52:52;5.63;;;3.05;;
64313;SDS011;50650;48.180;11.524;2024-01-06T11:55:18;12.52;;;3.05;;
64313;SDS011;50650;48.180;11.524;2024-01-06T11:57:45;7.90;;;2.80;;
64313;SDS011;50650;48.180;11.524;2024-01-06T12:00:12;7.07;;;2.60;;
64313;SDS011;50650;48.180;11.524;2024-01-06T12:02:41;9.70;;;2.72;;
64313;SDS011;50650;48.180;11.524;2024-01-06T12:05:12;4.22;;;2.17;;
64313;SDS011;50650;48.180;11.524;2024-01-06T12:07:39;4.20;;;2.20;;
64313;SDS011;50650;48.180;11.524;2024-01-06T12:10:06;5.85;;;2.40;;
64313;SDS011;50650;48.180;11.524;2024-01-06T12:12:33;4.82;;;2.70;;
64313;SDS011;50650;48.180;11.524;2024-01-06T12:15:00;4.15;;;2.60;;
64313;SDS011;50650;48.180;11.524;2024-01-06T12:17:27;6.85;;;2.65;;
64313;SDS011;50650;48.180;11.524;2024-01-06T12:20:04;5.85;;;2.78;;
64313;SDS011;50650;48.180;11.524;2024-01-06T12:22:33;7.43;;;2.63;;
64313;SDS011;50650;48.180;11.524;2024-01-06T12:25:00;4.45;;;2.35;;
64313;SDS011;50650;48.180;11.524;2024-01-06T12:27:26;2.95;;;2.25;;
64313;SDS011;50650;48.180;11.524;2024-01-06T12:29:53;4.88;;;2.17;;
64313;SDS011;50650;48.180;11.524;2024-01-06T12:32:20;4.78;;;2.20;;
64313;SDS011;50650;48.180;11.524;2024-01-06T12:34:49;5.82;;;2.42;;
64313;SDS011;50650;48.180;11.524;2024-01-06T12:37:17;5.70;;;2.70;;
64313;SDS011;50650;48.180;11.524;2024-01-06T12:39:47;6.97;;;2.53;;
64313;SDS011;50650;48.180;11.524;2024-01-06T12:42:14;5.75;;;2.80;;
64313;SDS011;50650;48.180;11.524;2024-01-06T12:44:44;4.25;;;2.40;;
64313;SDS011;50650;48.180;11.524;2024-01-06T12:47:10;6.50;;;2.08;;
64313;SDS011;50650;48.180;11.524;2024-01-06T12:49:38;2.95;;;1.67;;
64313;SDS011;50650;48.180;11.524;2024-01-06T12:52:05;3.53;;;1.90;;
64313;SDS011;50650;48.180;11.524;2024-01-06T12:54:33;5.90;;;2.22;;
64313;SDS011;50650;48.180;11.524;2024-01-06T12:56:59;5.30;;;2.03;;
64313;SDS011;50650;48.180;11.524;2024-01-06T12:59:26;5.30;;;2.00;;
64313;SDS011;50650;48.180;11.524;2024-01-06T13:01:52;3.80;;;1.80;;
64313;SDS011;50650;48.180;11.524;2024-01-06T13:04:19;11.40;;;3.20;;
64313;SDS011;50650;48.180;11.524;2024-01-06T13:06:45;6.28;;;2.72;;
64313;SDS011;50650;48.180;11.524;2024-01-06T13:09:14;3.67;;;1.98;;
64313;SDS011;50650;48.180;11.524;2024-01-06T13:11:45;4.00;;;2.10;;
64313;SDS011;50650;48.180;11.524;2024-01-06T13:14:12;4.22;;;2.10;;
64313;SDS011;50650;48.180;11.524;2024-01-06T13:16:39;6.95;;;2.00;;
64313;SDS011;50650;48.180;11.524;2024-01-06T13:19:07;6.30;;;1.70;;
64313;SDS011;50650;48.180;11.524;2024-01-06T13:21:34;5.00;;;2.05;;
64313;SDS011;50650;48.180;11.524;2024-01-06T13:24:00;4.43;;;1.60;;
64313;SDS011;50650;48.180;11.524;2024-01-06T13:26:29;9.27;;;1.90;;
64313;SDS011;50650;48.180;11.524;2024-01-06T13:29:00;5.38;;;1.70;;
64313;SDS011;50650;48.180;11.524;2024-01-06T13:31:26;5.40;;;2.40;;
64313;SDS011;50650;48.180;11.524;2024-01-06T13:33:54;4.85;;;2.17;;
64313;SDS011;50650;48.180;11.524;2024-01-06T13:36:20;6.95;;;2.40;;
64313;SDS011;50650;48.180;11.524;2024-01-06T13:38:47;6.90;;;2.97;;
64313;SDS011;50650;48.180;11.524;2024-01-06T13:41:13;13.52;;;5.90;;
64313;SDS011;50650;48.180;11.524;2024-01-06T13:43:43;15.70;;;4.82;;
64313;SDS011;50650;48.180;11.524;2024-01-06T13:46:11;6.10;;;2.75;;
64313;SDS011;50650;48.180;11.524;2024-01-06T13:48:39;7.55;;;3.20;;
64313;SDS011;50650;48.180;11.524;2024-01-06T13:51:05;5.55;;;2.20;;
64313;SDS011;50650;48.180;11.524;2024-01-06T13:53:32;4.47;;;2.28;;
64313;SDS011;50650;48.180;11.524;2024-01-06T13:55:58;5.28;;;2.17;;
64313;SDS011;50650;48.180;11.524;2024-01-06T13:58:27;4.93;;;1.98;;
64313;SDS011;50650;48.180;11.524;2024-01-06T14:00:57;5.70;;;2.42;;
64313;SDS011;50650;48.180;11.524;2024-01-06T14:03:28;6.40;;;2.50;;
64313;SDS011;50650;48.180;11.524;2024-01-06T14:05:54;6.95;;;2.40;;
64313;SDS011;50650;48.180;11.524;2024-01-06T14:08:20;4.13;;;2.65;;
64313;SDS011;50650;48.180;11.524;2024-01-06T14:10:47;7.40;;;2.78;;
64313;SDS011;50650;48.180;11.524;2024-01-06T14:13:13;6.45;;;2.65;;
64313;SDS011;50650;48.180;11.524;2024-01-06T14:15:49;5.25;;;2.40;;
64313;SDS011;50650;48.180;11.524;2024-01-06T14:18:15;7.00;;;3.75;;
64313;SDS011;50650;48.180;11.524;2024-01-06T14:20:43;5.65;;;3.63;;
64313;SDS011;50650;48.180;11.524;2024-01-06T14:23:12;8.00;;;3.83;;
64313;SDS011;50650;48.180;11.524;2024-01-06T14:25:42;8.25;;;3.75;;
64313;SDS011;50650;48.180;11.524;2024-01-06T14:28:15;9.30;;;3.85;;
64313;SDS011;50650;48.180;11.524;2024-01-06T14:30:45;5.28;;;3.05;;
64313;SDS011;50650;48.180;11.524;2024-01-06T14:33:18;6.03;;;2.65;;
64313;SDS011;50650;48.180;11.524;2024-01-06T14:35:49;4.53;;;2.50;;
64313;SDS011;50650;48.180;11.524;2024-01-06T14:38:15;7.35;;;2.72;;
64313;SDS011;50650;48.180;11.524;2024-01-06T14:40:42;7.82;;;4.40;;
64313;SDS011;50650;48.180;11.524;2024-01-06T14:43:08;4.07;;;3.05;;